createdAt,value
2023-05-22T00:01:33.805Z,52.05
2023-05-22T00:04:03.053Z,47.33
2023-05-22T00:06:30.464Z,43.50
2023-05-22T00:08:57.517Z,43.30
2023-05-22T00:11:24.831Z,41.00
2023-05-22T00:13:52.293Z,48.42
2023-05-22T00:16:19.672Z,44.83
2023-05-22T00:18:47.826Z,52.13
2023-05-22T00:21:15.064Z,51.65
2023-05-22T00:23:43.018Z,46.65
2023-05-22T00:26:10.191Z,48.30
2023-05-22T00:28:37.365Z,42.88
2023-05-22T00:31:04.784Z,48.70
2023-05-22T00:33:32.150Z,46.45
2023-05-22T00:35:59.214Z,49.67
2023-05-22T00:38:34.961Z,51.42
2023-05-22T00:41:03.867Z,51.05
2023-05-22T00:43:31.101Z,46.25
2023-05-22T00:45:58.268Z,44.10
2023-05-22T00:48:25.793Z,50.15
2023-05-22T00:50:54.883Z,49.13
2023-05-22T00:53:24.299Z,48.05
2023-05-22T00:55:53.828Z,48.80
2023-05-22T00:58:22.042Z,53.08
2023-05-22T01:00:49.321Z,49.17
2023-05-22T01:03:19.257Z,45.78
2023-05-22T01:05:46.799Z,49.63
2023-05-22T01:08:13.997Z,44.22
2023-05-22T01:10:41.942Z,48.90
2023-05-22T01:13:21.139Z,50.03
2023-05-22T01:16:01.013Z,55.15
2023-05-22T01:19:05.459Z,44.72
2023-05-22T01:22:06.545Z,49.07
2023-05-22T01:25:17.192Z,55.33
2023-05-22T01:27:44.288Z,51.20
2023-05-22T01:30:33.037Z,53.50
2023-05-22T01:33:01.071Z,54.17
2023-05-22T01:35:28.832Z,57.60
2023-05-22T01:37:57.683Z,51.83
2023-05-22T01:40:26.077Z,56.50
2023-05-22T01:42:53.480Z,57.00
2023-05-22T01:45:21.974Z,66.32
2023-05-22T01:47:49.298Z,62.40
2023-05-22T01:50:16.595Z,69.85
2023-05-22T01:53:07.640Z,60.58
2023-05-22T01:55:45.472Z,74.03
2023-05-22T01:58:40.026Z,67.57
2023-05-22T02:01:10.362Z,64.65
2023-05-22T02:03:40.543Z,63.00
2023-05-22T02:06:10.744Z,63.88
2023-05-22T02:08:40.402Z,69.63
2023-05-22T02:11:09.136Z,63.83
2023-05-22T02:13:36.973Z,69.72
2023-05-22T02:16:04.956Z,68.68
2023-05-22T02:18:32.098Z,63.63
2023-05-22T02:21:00.017Z,68.13
2023-05-22T02:23:29.987Z,62.35
2023-05-22T02:25:57.398Z,57.70
2023-05-22T02:28:24.859Z,61.92
2023-05-22T02:30:52.127Z,62.17
2023-05-22T02:33:19.572Z,59.28
2023-05-22T02:35:46.835Z,72.45
2023-05-22T02:38:14.300Z,64.18
2023-05-22T02:40:41.732Z,66.78
2023-05-22T02:43:08.806Z,60.75
2023-05-22T02:45:35.917Z,60.92
2023-05-22T02:48:03.962Z,67.45
2023-05-22T02:50:31.148Z,64.20
2023-05-22T02:52:58.210Z,64.20
2023-05-22T02:55:25.442Z,59.83
2023-05-22T02:57:52.812Z,64.40
2023-05-22T03:00:20.943Z,64.13
2023-05-22T03:02:50.259Z,73.13
2023-05-22T03:05:18.264Z,65.97
2023-05-22T03:07:48.383Z,61.47
2023-05-22T03:10:16.259Z,63.85
2023-05-22T03:12:43.470Z,66.70
2023-05-22T03:15:12.110Z,79.05
2023-05-22T03:17:39.303Z,70.43
2023-05-22T03:20:08.903Z,72.03
2023-05-22T03:22:36.184Z,77.82
2023-05-22T03:25:04.281Z,84.68
2023-05-22T03:27:31.460Z,83.20
2023-05-22T03:29:58.623Z,81.25
2023-05-22T03:32:26.255Z,88.38
2023-05-22T03:34:53.456Z,86.82
2023-05-22T03:37:20.701Z,92.68
2023-05-22T03:39:48.084Z,100.95
2023-05-22T03:42:16.498Z,99.35
2023-05-22T03:44:43.658Z,92.10
2023-05-22T03:47:10.872Z,88.43
2023-05-22T03:49:38.026Z,93.78
2023-05-22T03:52:05.465Z,107.43
2023-05-22T03:54:32.642Z,94.57
2023-05-22T03:56:59.909Z,102.50
2023-05-22T03:59:27.203Z,105.40
2023-05-22T04:01:54.303Z,104.65
2023-05-22T04:04:21.557Z,107.65
2023-05-22T04:06:50.091Z,117.93
2023-05-22T04:09:17.206Z,109.78
2023-05-22T04:11:44.512Z,108.35
2023-05-22T04:14:11.919Z,123.97
2023-05-22T04:16:39.124Z,111.70
2023-05-22T04:19:06.201Z,108.72
2023-05-22T04:21:36.058Z,120.65
2023-05-22T04:24:07.415Z,112.75
2023-05-22T04:26:34.799Z,117.70
2023-05-22T04:29:02.539Z,122.88
2023-05-22T04:31:30.342Z,118.65
2023-05-22T04:34:00.379Z,127.13
2023-05-22T04:36:28.077Z,112.88
2023-05-22T04:38:55.806Z,120.80
2023-05-22T04:41:26.731Z,120.22
2023-05-22T04:43:54.789Z,110.88
2023-05-22T04:46:22.154Z,109.82
2023-05-22T04:48:49.967Z,105.97
2023-05-22T04:51:17.278Z,102.25
2023-05-22T04:53:46.465Z,110.40
2023-05-22T04:56:18.610Z,97.00
2023-05-22T04:58:54.134Z,98.72
2023-05-22T05:01:21.714Z,97.22
2023-05-22T05:03:49.497Z,101.22
2023-05-22T05:06:17.398Z,91.72
2023-05-22T05:08:46.892Z,95.55
2023-05-22T05:11:14.276Z,100.97
2023-05-22T05:13:41.935Z,93.82
2023-05-22T05:16:09.363Z,94.75
2023-05-22T05:18:37.050Z,82.03
2023-05-22T05:21:04.509Z,83.50
2023-05-22T05:23:31.712Z,80.95
2023-05-22T05:25:59.283Z,78.13
2023-05-22T05:28:26.863Z,81.32
2023-05-22T05:30:54.065Z,85.22
2023-05-22T05:33:21.366Z,84.32
2023-05-22T05:35:50.580Z,91.20
2023-05-22T05:38:17.873Z,77.32
2023-05-22T05:40:48.230Z,85.90
2023-05-22T05:43:15.582Z,87.95
2023-05-22T05:45:44.139Z,77.53
2023-05-22T05:48:12.493Z,86.15
2023-05-22T05:50:40.153Z,86.63
2023-05-22T05:53:08.710Z,85.28
2023-05-22T05:55:36.051Z,91.47
2023-05-22T05:58:03.204Z,92.13
2023-05-22T06:00:30.998Z,78.03
2023-05-22T06:02:58.111Z,72.07
2023-05-22T06:05:27.235Z,64.32
2023-05-22T06:07:54.824Z,73.65
2023-05-22T06:10:22.672Z,70.97
2023-05-22T06:12:49.977Z,72.40
2023-05-22T06:15:18.059Z,74.93
2023-05-22T06:17:45.432Z,72.50
2023-05-22T06:20:15.769Z,72.93
2023-05-22T06:22:42.951Z,78.65
2023-05-22T06:25:11.343Z,77.32
2023-05-22T06:27:38.652Z,73.03
2023-05-22T06:30:07.226Z,81.50
2023-05-22T06:32:35.010Z,83.13
2023-05-22T06:35:05.325Z,78.07
2023-05-22T06:37:35.821Z,74.28
2023-05-22T06:40:03.646Z,71.05
2023-05-22T06:42:31.084Z,69.72
2023-05-22T06:44:58.227Z,68.00
2023-05-22T06:47:25.386Z,66.35
2023-05-22T06:49:52.502Z,69.10
2023-05-22T06:52:26.039Z,65.18
2023-05-22T06:54:54.068Z,72.13
2023-05-22T06:57:21.734Z,83.75
2023-05-22T06:59:49.127Z,77.47
2023-05-22T07:02:16.103Z,80.32
2023-05-22T07:04:43.116Z,75.22
2023-05-22T07:07:10.480Z,76.25
2023-05-22T07:09:37.476Z,77.82
2023-05-22T07:12:05.754Z,83.10
2023-05-22T07:14:32.814Z,78.88
2023-05-22T07:16:59.953Z,84.18
2023-05-22T07:19:27.255Z,90.68
2023-05-22T07:21:54.557Z,83.18
2023-05-22T07:24:21.680Z,82.90
2023-05-22T07:26:49.766Z,87.88
2023-05-22T07:29:17.166Z,87.70
2023-05-22T07:31:44.367Z,86.15
2023-05-22T07:34:11.529Z,79.82
2023-05-22T07:36:38.984Z,86.45
2023-05-22T07:39:07.078Z,80.30
2023-05-22T07:41:34.328Z,77.88
2023-05-22T07:44:01.684Z,74.60
2023-05-22T07:46:28.936Z,72.20
2023-05-22T07:48:56.207Z,71.20
2023-05-22T07:51:23.522Z,72.57
2023-05-22T07:53:50.659Z,72.13
2023-05-22T07:56:17.985Z,80.80
2023-05-22T07:58:48.310Z,73.20
2023-05-22T08:01:18.480Z,62.90
2023-05-22T08:03:45.920Z,69.63
2023-05-22T08:06:13.295Z,66.05
2023-05-22T08:08:40.563Z,63.05
2023-05-22T08:11:07.732Z,60.25
2023-05-22T08:13:35.063Z,67.65
2023-05-22T08:16:02.385Z,63.10
2023-05-22T08:18:30.145Z,64.10
2023-05-22T08:20:57.702Z,62.67
2023-05-22T08:23:24.752Z,64.20
2023-05-22T08:25:51.957Z,64.60
2023-05-22T08:28:19.077Z,71.00
2023-05-22T08:30:46.225Z,68.35
2023-05-22T08:33:13.522Z,73.90
2023-05-22T08:35:40.910Z,70.32
2023-05-22T08:38:08.512Z,72.20
2023-05-22T08:40:41.376Z,75.97
2023-05-22T08:43:10.697Z,78.60
2023-05-22T08:45:37.913Z,81.85
2023-05-22T08:48:06.320Z,87.03
2023-05-22T08:50:38.531Z,99.82
2023-05-22T08:53:11.416Z,95.03
2023-05-22T08:55:38.967Z,86.88
2023-05-22T08:58:06.820Z,83.05
2023-05-22T09:00:34.294Z,76.55
2023-05-22T09:03:01.553Z,73.45
2023-05-22T09:05:28.661Z,70.60
2023-05-22T09:08:02.704Z,69.80
2023-05-22T09:10:37.166Z,73.35
2023-05-22T09:13:11.872Z,68.03
2023-05-22T09:15:39.290Z,74.05
2023-05-22T09:18:06.852Z,69.70
2023-05-22T09:20:39.257Z,77.63
2023-05-22T09:23:18.155Z,75.35
2023-05-22T09:25:46.839Z,69.05
2023-05-22T09:28:14.414Z,67.40
2023-05-22T09:30:42.990Z,60.78
2023-05-22T09:33:14.336Z,66.22
2023-05-22T09:35:42.313Z,65.50
2023-05-22T09:38:12.312Z,62.67
2023-05-22T09:40:40.810Z,56.38
2023-05-22T09:43:18.426Z,69.57
2023-05-22T09:45:46.037Z,60.67
2023-05-22T09:48:20.593Z,63.30
2023-05-22T09:50:49.148Z,62.70
2023-05-22T09:53:18.657Z,60.15
2023-05-22T09:55:48.638Z,59.00
2023-05-22T09:58:19.613Z,47.97
2023-05-22T10:00:51.167Z,53.50
2023-05-22T10:03:24.512Z,55.63
2023-05-22T10:05:54.448Z,52.17
2023-05-22T10:08:28.570Z,52.67
2023-05-22T10:10:56.367Z,45.85
2023-05-22T10:13:26.313Z,53.67
2023-05-22T10:15:54.855Z,55.67
2023-05-22T10:18:23.214Z,63.90
2023-05-22T10:20:50.730Z,63.63
2023-05-22T10:23:18.247Z,52.97
2023-05-22T10:25:46.692Z,50.08
2023-05-22T10:28:21.155Z,53.05
2023-05-22T10:31:19.458Z,52.78
2023-05-22T10:33:54.526Z,57.50
2023-05-22T10:36:28.474Z,54.87
2023-05-22T10:39:01.345Z,60.58
2023-05-22T10:41:29.080Z,59.08
2023-05-22T10:43:58.196Z,51.72
2023-05-22T10:46:25.719Z,53.42
2023-05-22T10:48:57.799Z,55.25
2023-05-22T10:51:25.505Z,50.17
2023-05-22T10:53:58.084Z,57.78
2023-05-22T10:56:33.938Z,58.90
2023-05-22T11:01:38.609Z,56.92
2023-05-22T11:04:07.099Z,53.22
2023-05-22T11:07:13.551Z,52.17
2023-05-22T11:09:43.555Z,52.53
2023-05-22T11:12:21.590Z,60.03
2023-05-22T11:14:56.393Z,53.40
2023-05-22T11:17:26.098Z,58.22
2023-05-22T11:20:12.703Z,45.97
2023-05-22T11:22:45.235Z,49.83
2023-05-22T11:25:18.055Z,44.40
2023-05-22T11:27:46.748Z,50.42
2023-05-22T11:30:14.980Z,50.95
2023-05-22T11:32:45.207Z,53.78
2023-05-22T11:35:17.507Z,45.10
2023-05-22T11:37:45.557Z,50.78
2023-05-22T11:40:16.320Z,48.03
2023-05-22T11:42:43.496Z,47.70
2023-05-22T11:45:11.303Z,46.55
2023-05-22T11:47:38.872Z,45.67
2023-05-22T11:50:09.509Z,47.05
2023-05-22T11:52:39.125Z,47.30
2023-05-22T11:55:08.084Z,48.60
2023-05-22T11:57:36.292Z,44.78
2023-05-22T12:00:06.578Z,47.50
2023-05-22T12:02:34.252Z,52.38
2023-05-22T12:05:01.648Z,42.63
2023-05-22T12:07:29.314Z,44.03
2023-05-22T12:09:57.702Z,40.45
2023-05-22T12:12:25.885Z,45.20
2023-05-22T12:14:53.636Z,46.67
2023-05-22T12:17:20.706Z,51.08
2023-05-22T12:19:48.352Z,48.80
2023-05-22T12:22:15.894Z,52.55
2023-05-22T12:24:47.385Z,50.00
2023-05-22T12:27:15.100Z,48.67
2023-05-22T12:29:43.294Z,46.20
2023-05-22T12:32:12.961Z,46.63
2023-05-22T12:34:47.867Z,46.20
2023-05-22T12:37:28.347Z,42.03
2023-05-22T12:39:59.893Z,39.47
2023-05-22T12:42:28.288Z,39.55
2023-05-22T12:44:57.226Z,40.78
2023-05-22T12:47:25.970Z,41.08
2023-05-22T12:49:53.696Z,37.58
2023-05-22T12:52:21.146Z,37.63
2023-05-22T12:54:48.610Z,42.25
2023-05-22T12:57:17.303Z,39.60
2023-05-22T12:59:44.556Z,40.15
2023-05-22T13:02:11.949Z,40.90
2023-05-22T13:04:39.265Z,39.38
2023-05-22T13:07:06.708Z,42.03
2023-05-22T13:09:33.904Z,40.45
2023-05-22T13:12:01.229Z,39.00
2023-05-22T13:14:28.594Z,36.75
2023-05-22T13:16:55.915Z,44.60
2023-05-22T13:19:23.214Z,36.60
2023-05-22T13:21:50.409Z,40.00
2023-05-22T13:24:17.596Z,43.92
2023-05-22T13:26:44.859Z,35.83
2023-05-22T13:29:12.358Z,39.42
2023-05-22T13:31:39.715Z,34.95
2023-05-22T13:34:07.194Z,37.80
2023-05-22T13:36:34.745Z,45.13
2023-05-22T13:39:02.100Z,39.38
2023-05-22T13:41:29.357Z,39.97
2023-05-22T13:43:56.492Z,44.13
2023-05-22T13:46:24.017Z,40.45
2023-05-22T13:48:54.154Z,44.35
2023-05-22T13:51:21.367Z,37.90
2023-05-22T13:53:48.573Z,34.75
2023-05-22T13:56:19.103Z,42.13
2023-05-22T13:58:46.525Z,42.95
2023-05-22T14:01:13.861Z,42.33
2023-05-22T14:03:41.345Z,38.97
2023-05-22T14:06:08.632Z,40.10
2023-05-22T14:08:36.280Z,41.72
2023-05-22T14:11:03.677Z,38.83
2023-05-22T14:13:30.978Z,44.85
2023-05-22T14:15:58.340Z,44.53
2023-05-22T14:18:25.437Z,40.55
2023-05-22T14:20:52.869Z,41.97
2023-05-22T14:23:20.079Z,38.20
2023-05-22T14:25:50.687Z,39.25
2023-05-22T14:28:18.409Z,40.22
2023-05-22T14:30:45.735Z,43.03
2023-05-22T14:33:13.498Z,44.00
2023-05-22T14:35:41.268Z,48.28
2023-05-22T14:38:08.769Z,48.47
2023-05-22T14:40:36.236Z,57.85
2023-05-22T14:43:03.419Z,53.63
2023-05-22T14:45:30.727Z,55.67
2023-05-22T14:47:57.990Z,46.85
2023-05-22T14:50:25.431Z,57.58
2023-05-22T14:52:52.899Z,56.75
2023-05-22T14:55:21.326Z,42.85
2023-05-22T14:57:48.640Z,45.53
2023-05-22T15:00:16.715Z,44.22
2023-05-22T15:02:43.969Z,48.00
2023-05-22T15:05:11.647Z,41.20
2023-05-22T15:07:44.424Z,54.17
2023-05-22T15:10:13.146Z,49.58
2023-05-22T15:12:40.288Z,50.83
2023-05-22T15:15:07.932Z,49.83
2023-05-22T15:17:35.233Z,51.05
2023-05-22T15:20:02.702Z,46.60
2023-05-22T15:22:29.746Z,46.25
2023-05-22T15:25:09.732Z,45.40
2023-05-22T15:27:38.554Z,46.70
2023-05-22T15:30:06.825Z,51.45
2023-05-22T15:32:34.523Z,43.60
2023-05-22T15:35:01.735Z,54.47
2023-05-22T15:37:32.560Z,49.65
2023-05-22T15:40:01.820Z,50.72
2023-05-22T15:42:29.259Z,55.78
2023-05-22T15:44:56.804Z,48.70
2023-05-22T15:47:23.909Z,51.78
2023-05-22T15:49:51.091Z,51.90
2023-05-22T15:52:19.554Z,49.58
2023-05-22T15:54:46.976Z,51.08
2023-05-22T15:57:14.230Z,47.47
2023-05-22T15:59:41.226Z,47.20
2023-05-22T16:02:08.290Z,45.00
2023-05-22T16:04:35.302Z,45.13
2023-05-22T16:07:02.455Z,46.45
2023-05-22T16:09:31.397Z,42.90
2023-05-22T16:11:59.701Z,44.40
2023-05-22T16:14:27.188Z,43.20
2023-05-22T16:16:54.861Z,43.53
2023-05-22T16:19:22.018Z,49.65
2023-05-22T16:21:49.263Z,47.03
2023-05-22T16:24:16.629Z,45.70
2023-05-22T16:26:43.684Z,51.00
2023-05-22T16:29:10.850Z,43.47
2023-05-22T16:31:38.048Z,41.83
2023-05-22T16:34:06.020Z,46.33
2023-05-22T16:36:33.291Z,44.70
2023-05-22T16:39:00.560Z,39.33
2023-05-22T16:41:30.554Z,43.85
2023-05-22T16:44:00.628Z,37.17
2023-05-22T16:46:28.211Z,43.40
2023-05-22T16:48:55.549Z,41.17
2023-05-22T16:51:23.146Z,43.78
2023-05-22T16:53:50.796Z,33.58
2023-05-22T16:56:20.533Z,37.67
2023-05-22T16:58:47.929Z,40.97
2023-05-22T17:01:15.349Z,37.70
2023-05-22T17:03:42.718Z,38.92
2023-05-22T17:06:09.838Z,39.83
2023-05-22T17:08:36.883Z,36.78
2023-05-22T17:11:04.213Z,30.77
2023-05-22T17:13:31.743Z,33.53
2023-05-22T17:15:59.035Z,31.48
2023-05-22T17:18:26.579Z,33.03
2023-05-22T17:20:56.171Z,32.05
2023-05-22T17:23:23.977Z,33.35
2023-05-22T17:25:51.478Z,32.08
2023-05-22T17:28:21.681Z,26.60
2023-05-22T17:30:49.021Z,29.85
2023-05-22T17:33:16.308Z,24.55
2023-05-22T17:35:43.392Z,27.73
2023-05-22T17:38:10.829Z,29.05
2023-05-22T17:40:44.716Z,22.15
2023-05-22T17:43:13.989Z,22.55
2023-05-22T17:45:41.825Z,23.02
2023-05-22T17:48:09.148Z,22.58
2023-05-22T17:50:36.434Z,20.52
2023-05-22T17:53:03.535Z,20.13
2023-05-22T17:55:30.792Z,20.10
2023-05-22T17:57:58.426Z,17.20
2023-05-22T18:00:25.893Z,20.25
2023-05-22T18:02:53.189Z,20.58
2023-05-22T18:05:20.335Z,18.30
2023-05-22T18:07:47.663Z,15.90
2023-05-22T18:10:16.151Z,15.15
2023-05-22T18:12:43.489Z,16.55
2023-05-22T18:15:12.415Z,15.18
2023-05-22T18:17:40.165Z,15.10
2023-05-22T18:20:08.497Z,13.43
2023-05-22T18:22:37.286Z,14.07
2023-05-22T18:25:07.708Z,15.20
2023-05-22T18:27:36.643Z,17.10
2023-05-22T18:30:05.355Z,14.52
2023-05-22T18:32:32.853Z,12.73
2023-05-22T18:35:02.834Z,16.88
2023-05-22T18:37:30.087Z,17.23
2023-05-22T18:39:57.410Z,17.50
2023-05-22T18:42:24.748Z,15.57
2023-05-22T18:44:51.959Z,13.45
2023-05-22T18:47:19.429Z,18.75
2023-05-22T18:49:46.631Z,17.00
2023-05-22T18:52:13.746Z,21.08
2023-05-22T18:54:41.056Z,18.17
2023-05-22T18:57:08.361Z,17.83
2023-05-22T18:59:35.647Z,22.83
2023-05-22T19:02:02.971Z,20.15
2023-05-22T19:04:30.325Z,21.63
2023-05-22T19:06:57.895Z,27.80
2023-05-22T19:09:25.076Z,25.63
2023-05-22T19:11:53.236Z,26.65
2023-05-22T19:14:20.226Z,27.67
2023-05-22T19:16:47.267Z,20.50
2023-05-22T19:19:15.047Z,26.13
2023-05-22T19:21:42.169Z,26.23
2023-05-22T19:24:09.484Z,27.38
2023-05-22T19:26:36.842Z,25.20
2023-05-22T19:29:03.990Z,26.77
2023-05-22T19:31:31.764Z,35.75
2023-05-22T19:33:58.897Z,34.88
2023-05-22T19:36:26.125Z,29.80
2023-05-22T19:38:53.821Z,30.98
2023-05-22T19:41:21.812Z,34.65
2023-05-22T19:43:49.021Z,26.67
2023-05-22T19:46:16.066Z,33.30
2023-05-22T19:48:43.215Z,37.05
2023-05-22T19:51:10.476Z,42.13
2023-05-22T19:53:37.620Z,37.28
2023-05-22T19:56:04.824Z,34.72
2023-05-22T19:58:31.941Z,36.95
2023-05-22T20:00:58.999Z,39.15
2023-05-22T20:03:26.701Z,48.33
2023-05-22T20:05:54.003Z,43.75
2023-05-22T20:08:25.683Z,44.10
2023-05-22T20:10:53.092Z,48.10
2023-05-22T20:13:20.215Z,35.78
2023-05-22T20:15:53.536Z,44.78
2023-05-22T20:18:24.382Z,43.80
2023-05-22T20:20:51.958Z,50.05
2023-05-22T20:23:19.228Z,45.40
2023-05-22T20:25:46.920Z,46.90
2023-05-22T20:28:13.977Z,49.78
2023-05-22T20:30:41.344Z,50.58
2023-05-22T20:33:08.716Z,57.25
2023-05-22T20:35:37.352Z,54.22
2023-05-22T20:38:04.488Z,59.55
2023-05-22T20:40:34.795Z,62.47
2023-05-22T20:43:04.794Z,62.65
2023-05-22T20:45:32.596Z,62.25
2023-05-22T20:47:59.949Z,62.22
2023-05-22T20:50:30.396Z,62.58
2023-05-22T20:53:00.310Z,59.97
2023-05-22T20:55:27.477Z,62.45
2023-05-22T20:57:54.688Z,57.83
2023-05-22T21:00:21.966Z,65.85
2023-05-22T21:02:49.170Z,56.25
2023-05-22T21:05:17.005Z,62.25
2023-05-22T21:07:43.962Z,62.95
2023-05-22T21:10:11.374Z,60.63
2023-05-22T21:12:38.581Z,61.15
2023-05-22T21:15:06.414Z,62.95
2023-05-22T21:17:33.481Z,66.97
2023-05-22T21:20:00.713Z,61.00
2023-05-22T21:22:27.827Z,65.45
2023-05-22T21:24:54.992Z,61.55
2023-05-22T21:27:22.281Z,60.97
2023-05-22T21:29:49.721Z,65.57
2023-05-22T21:32:17.001Z,62.33
2023-05-22T21:34:44.051Z,59.10
2023-05-22T21:37:11.778Z,60.70
2023-05-22T21:39:38.892Z,57.35
2023-05-22T21:42:06.435Z,60.63
2023-05-22T21:44:33.399Z,63.38
2023-05-22T21:47:01.153Z,54.72
2023-05-22T21:49:28.458Z,55.15
2023-05-22T21:51:55.786Z,61.20
2023-05-22T21:54:23.008Z,61.35
2023-05-22T21:56:50.020Z,54.13
2023-05-22T21:59:17.207Z,69.10
2023-05-22T22:01:44.471Z,61.47
2023-05-22T22:04:11.730Z,64.07
2023-05-22T22:06:39.077Z,60.65
2023-05-22T22:09:06.336Z,57.55
2023-05-22T22:11:33.312Z,49.53
2023-05-22T22:14:00.436Z,60.90
2023-05-22T22:16:28.863Z,58.00
2023-05-22T22:19:01.335Z,62.10
2023-05-22T22:21:28.897Z,68.22
2023-05-22T22:23:58.923Z,64.93
2023-05-22T22:26:27.269Z,68.88
2023-05-22T22:28:54.939Z,75.13
2023-05-22T22:31:22.156Z,65.90
2023-05-22T22:33:49.500Z,69.13
2023-05-22T22:36:17.161Z,64.15
2023-05-22T22:38:47.390Z,61.70
2023-05-22T22:41:15.207Z,75.68
2023-05-22T22:43:42.367Z,69.50
2023-05-22T22:46:09.932Z,61.30
2023-05-22T22:48:37.158Z,68.45
2023-05-22T22:51:04.951Z,69.28
2023-05-22T22:53:32.109Z,71.85
2023-05-22T22:55:59.425Z,69.75
2023-05-22T22:58:26.726Z,71.07
2023-05-22T23:00:54.282Z,71.07
2023-05-22T23:03:21.859Z,68.90
2023-05-22T23:05:49.286Z,66.05
2023-05-22T23:08:16.488Z,68.82
2023-05-22T23:10:43.477Z,65.80
2023-05-22T23:13:10.890Z,70.50
2023-05-22T23:15:37.974Z,67.30
2023-05-22T23:18:05.211Z,69.18
2023-05-22T23:20:32.219Z,64.40
2023-05-22T23:22:59.244Z,67.60
2023-05-22T23:25:26.404Z,57.25
2023-05-22T23:27:53.504Z,64.22
2023-05-22T23:30:20.554Z,55.25
2023-05-22T23:32:47.665Z,53.88
2023-05-22T23:35:14.821Z,56.50
2023-05-22T23:37:42.380Z,61.58
2023-05-22T23:40:09.991Z,59.05
2023-05-22T23:42:37.508Z,54.28
2023-05-22T23:45:05.080Z,51.60
2023-05-22T23:47:32.255Z,47.40
2023-05-22T23:50:00.299Z,47.83
2023-05-22T23:52:28.035Z,43.70
2023-05-22T23:54:55.132Z,40.10
2023-05-22T23:57:22.396Z,37.15
2023-05-22T23:59:49.472Z,34.60
